sensor_id;sensor_type;location;lat;lon;timestamp;temperature;humidity
10192;DHT22;17580;50.850;4.504;2023-06-04T00:02:07;14.60;1.00
10192;DHT22;17580;50.850;4.504;2023-06-04T00:04:36;14.60;1.00
10192;DHT22;17580;50.850;4.504;2023-06-04T00:07:03;14.50;1.00
10192;DHT22;17580;50.850;4.504;2023-06-04T00:09:30;14.50;1.00
10192;DHT22;17580;50.850;4.504;2023-06-04T00:11:57;14.40;1.00
10192;DHT22;17580;50.850;4.504;2023-06-04T00:14:25;14.30;1.00
10192;DHT22;17580;50.850;4.504;2023-06-04T00:16:52;14.20;1.00
10192;DHT22;17580;50.850;4.504;2023-06-04T00:19:19;14.20;1.00
10192;DHT22;17580;50.850;4.504;2023-06-04T00:21:47;14.20;1.00
10192;DHT22;17580;50.850;4.504;2023-06-04T00:24:14;14.10;1.00
10192;DHT22;17580;50.850;4.504;2023-06-04T00:26:41;14.10;1.00
10192;DHT22;17580;50.850;4.504;2023-06-04T00:29:08;14.10;1.00
10192;DHT22;17580;50.850;4.504;2023-06-04T00:31:35;14.00;1.00
10192;DHT22;17580;50.850;4.504;2023-06-04T00:34:03;14.00;1.00
10192;DHT22;17580;50.850;4.504;2023-06-04T00:36:30;14.00;1.00
10192;DHT22;17580;50.850;4.504;2023-06-04T00:38:59;13.90;1.00
10192;DHT22;17580;50.850;4.504;2023-06-04T00:41:26;13.80;1.00
10192;DHT22;17580;50.850;4.504;2023-06-04T00:43:53;13.70;1.00
10192;DHT22;17580;50.850;4.504;2023-06-04T00:46:23;13.70;1.00
10192;DHT22;17580;50.850;4.504;2023-06-04T00:48:51;13.60;1.00
10192;DHT22;17580;50.850;4.504;2023-06-04T00:51:19;13.60;1.00
10192;DHT22;17580;50.850;4.504;2023-06-04T00:53:48;13.60;1.00
10192;DHT22;17580;50.850;4.504;2023-06-04T00:56:17;13.50;1.00
10192;DHT22;17580;50.850;4.504;2023-06-04T00:58:45;13.50;1.00
10192;DHT22;17580;50.850;4.504;2023-06-04T01:01:18;13.40;1.00
10192;DHT22;17580;50.850;4.504;2023-06-04T01:03:51;13.40;1.00
10192;DHT22;17580;50.850;4.504;2023-06-04T01:06:23;13.30;1.00
10192;DHT22;17580;50.850;4.504;2023-06-04T01:08:53;13.20;1.00
10192;DHT22;17580;50.850;4.504;2023-06-04T01:11:33;13.20;1.00
10192;DHT22;17580;50.850;4.504;2023-06-04T01:14:00;13.20;1.00
10192;DHT22;17580;50.850;4.504;2023-06-04T01:16:31;13.10;1.00
10192;DHT22;17580;50.850;4.504;2023-06-04T01:19:02;13.10;1.00
10192;DHT22;17580;50.850;4.504;2023-06-04T01:21:35;13.10;1.00
10192;DHT22;17580;50.850;4.504;2023-06-04T01:24:05;13.10;1.00
10192;DHT22;17580;50.850;4.504;2023-06-04T01:26:36;13.00;1.00
10192;DHT22;17580;50.850;4.504;2023-06-04T01:29:03;13.00;1.00
10192;DHT22;17580;50.850;4.504;2023-06-04T01:31:31;13.00;1.00
10192;DHT22;17580;50.850;4.504;2023-06-04T01:33:58;12.90;1.00
10192;DHT22;17580;50.850;4.504;2023-06-04T01:36:25;12.90;1.00
10192;DHT22;17580;50.850;4.504;2023-06-04T01:38:52;12.80;1.00
10192;DHT22;17580;50.850;4.504;2023-06-04T01:41:19;12.90;1.00
10192;DHT22;17580;50.850;4.504;2023-06-04T01:43:48;12.80;1.00
10192;DHT22;17580;50.850;4.504;2023-06-04T01:46:15;12.80;1.00
10192;DHT22;17580;50.850;4.504;2023-06-04T01:48:42;12.70;1.00
10192;DHT22;17580;50.850;4.504;2023-06-04T01:51:09;12.70;1.00
10192;DHT22;17580;50.850;4.504;2023-06-04T01:53:36;12.60;1.00
10192;DHT22;17580;50.850;4.504;2023-06-04T01:56:03;12.60;1.00
10192;DHT22;17580;50.850;4.504;2023-06-04T01:58:30;12.60;1.00
10192;DHT22;17580;50.850;4.504;2023-06-04T02:00:59;12.50;1.00
10192;DHT22;17580;50.850;4.504;2023-06-04T02:03:28;12.50;1.00
10192;DHT22;17580;50.850;4.504;2023-06-04T02:06:02;12.50;1.00
10192;DHT22;17580;50.850;4.504;2023-06-04T02:08:29;12.50;1.00
10192;DHT22;17580;50.850;4.504;2023-06-04T02:10:56;12.50;1.00
10192;DHT22;17580;50.850;4.504;2023-06-04T02:13:23;12.40;1.00
10192;DHT22;17580;50.850;4.504;2023-06-04T02:15:50;12.40;1.00
10192;DHT22;17580;50.850;4.504;2023-06-04T02:18:20;12.40;1.00
10192;DHT22;17580;50.850;4.504;2023-06-04T02:20:48;12.30;1.00
10192;DHT22;17580;50.850;4.504;2023-06-04T02:23:17;12.30;1.00
10192;DHT22;17580;50.850;4.504;2023-06-04T02:25:44;12.30;1.00
10192;DHT22;17580;50.850;4.504;2023-06-04T02:28:11;12.30;1.00
10192;DHT22;17580;50.850;4.504;2023-06-04T02:30:38;12.30;1.00
10192;DHT22;17580;50.850;4.504;2023-06-04T02:33:05;12.30;1.00
10192;DHT22;17580;50.850;4.504;2023-06-04T02:35:37;12.20;1.00
10192;DHT22;17580;50.850;4.504;2023-06-04T02:38:06;12.20;1.00
10192;DHT22;17580;50.850;4.504;2023-06-04T02:40:34;12.20;1.00
10192;DHT22;17580;50.850;4.504;2023-06-04T02:43:03;12.10;1.00
10192;DHT22;17580;50.850;4.504;2023-06-04T02:45:30;12.10;1.00
10192;DHT22;17580;50.850;4.504;2023-06-04T02:47:57;12.20;1.10
10192;DHT22;17580;50.850;4.504;2023-06-04T02:50:25;12.20;1.00
10192;DHT22;17580;50.850;4.504;2023-06-04T02:52:53;12.10;1.10
10192;DHT22;17580;50.850;4.504;2023-06-04T02:55:20;12.20;1.00
10192;DHT22;17580;50.850;4.504;2023-06-04T02:57:47;12.10;1.00
10192;DHT22;17580;50.850;4.504;2023-06-04T03:00:15;12.10;1.00
10192;DHT22;17580;50.850;4.504;2023-06-04T03:02:44;12.00;1.00
10192;DHT22;17580;50.850;4.504;2023-06-04T03:05:13;12.00;1.00
10192;DHT22;17580;50.850;4.504;2023-06-04T03:07:42;12.00;1.50
10192;DHT22;17580;50.850;4.504;2023-06-04T03:10:12;12.00;1.40
10192;DHT22;17580;50.850;4.504;2023-06-04T03:12:40;12.00;1.00
10192;DHT22;17580;50.850;4.504;2023-06-04T03:15:08;11.90;2.20
10192;DHT22;17580;50.850;4.504;2023-06-04T03:17:35;11.90;1.00
10192;DHT22;17580;50.850;4.504;2023-06-04T03:20:03;11.80;1.80
10192;DHT22;17580;50.850;4.504;2023-06-04T03:22:32;11.80;1.80
10192;DHT22;17580;50.850;4.504;2023-06-04T03:25:01;11.80;1.80
10192;DHT22;17580;50.850;4.504;2023-06-04T03:27:31;11.80;2.90
10192;DHT22;17580;50.850;4.504;2023-06-04T03:29:58;11.70;3.30
10192;DHT22;17580;50.850;4.504;2023-06-04T03:32:25;11.80;2.80
10192;DHT22;17580;50.850;4.504;2023-06-04T03:34:52;11.80;2.30
10192;DHT22;17580;50.850;4.504;2023-06-04T03:37:19;11.80;2.20
10192;DHT22;17580;50.850;4.504;2023-06-04T03:39:46;11.80;2.20
10192;DHT22;17580;50.850;4.504;2023-06-04T03:42:13;11.70;3.40
10192;DHT22;17580;50.850;4.504;2023-06-04T03:44:42;11.70;2.50
10192;DHT22;17580;50.850;4.504;2023-06-04T03:47:09;11.70;2.50
10192;DHT22;17580;50.850;4.504;2023-06-04T03:49:35;11.70;2.90
10192;DHT22;17580;50.850;4.504;2023-06-04T03:52:03;11.60;4.20
10192;DHT22;17580;50.850;4.504;2023-06-04T03:54:30;11.60;3.70
10192;DHT22;17580;50.850;4.504;2023-06-04T03:56:57;11.60;4.90
10192;DHT22;17580;50.850;4.504;2023-06-04T03:59:24;11.60;4.10
10192;DHT22;17580;50.850;4.504;2023-06-04T04:01:52;11.60;4.20
10192;DHT22;17580;50.850;4.504;2023-06-04T04:04:19;11.70;4.10
10192;DHT22;17580;50.850;4.504;2023-06-04T04:06:46;11.70;4.80
10192;DHT22;17580;50.850;4.504;2023-06-04T04:09:13;11.60;4.30
10192;DHT22;17580;50.850;4.504;2023-06-04T04:11:40;11.60;4.90
10192;DHT22;17580;50.850;4.504;2023-06-04T04:14:07;11.60;5.50
10192;DHT22;17580;50.850;4.504;2023-06-04T04:16:34;11.60;6.00
10192;DHT22;17580;50.850;4.504;2023-06-04T04:19:03;11.60;6.90
10192;DHT22;17580;50.850;4.504;2023-06-04T04:21:33;11.60;7.20
10192;DHT22;17580;50.850;4.504;2023-06-04T04:24:02;11.60;6.20
10192;DHT22;17580;50.850;4.504;2023-06-04T04:26:29;11.70;6.30
10192;DHT22;17580;50.850;4.504;2023-06-04T04:28:56;11.70;6.60
10192;DHT22;17580;50.850;4.504;2023-06-04T04:31:26;11.70;7.60
10192;DHT22;17580;50.850;4.504;2023-06-04T04:33:55;11.70;7.60
10192;DHT22;17580;50.850;4.504;2023-06-04T04:36:23;11.80;7.90
10192;DHT22;17580;50.850;4.504;2023-06-04T04:38:51;11.80;8.60
10192;DHT22;17580;50.850;4.504;2023-06-04T04:41:20;11.90;8.10
10192;DHT22;17580;50.850;4.504;2023-06-04T04:43:48;11.90;8.80
10192;DHT22;17580;50.850;4.504;2023-06-04T04:46:15;11.90;10.10
10192;DHT22;17580;50.850;4.504;2023-06-04T04:48:42;11.90;9.30
10192;DHT22;17580;50.850;4.504;2023-06-04T04:51:09;12.00;9.80
10192;DHT22;17580;50.850;4.504;2023-06-04T04:53:37;12.00;9.30
10192;DHT22;17580;50.850;4.504;2023-06-04T04:56:04;12.10;9.50
10192;DHT22;17580;50.850;4.504;2023-06-04T04:58:31;12.10;9.70
10192;DHT22;17580;50.850;4.504;2023-06-04T05:00:58;12.20;8.70
10192;DHT22;17580;50.850;4.504;2023-06-04T05:03:25;12.20;10.10
10192;DHT22;17580;50.850;4.504;2023-06-04T05:05:52;12.30;9.00
10192;DHT22;17580;50.850;4.504;2023-06-04T05:08:19;12.40;10.00
10192;DHT22;17580;50.850;4.504;2023-06-04T05:10:48;12.40;9.30
10192;DHT22;17580;50.850;4.504;2023-06-04T05:13:15;12.40;9.30
10192;DHT22;17580;50.850;4.504;2023-06-04T05:15:43;12.50;9.90
10192;DHT22;17580;50.850;4.504;2023-06-04T05:18:10;12.50;8.10
10192;DHT22;17580;50.850;4.504;2023-06-04T05:20:37;12.60;8.40
10192;DHT22;17580;50.850;4.504;2023-06-04T05:23:04;12.60;8.60
10192;DHT22;17580;50.850;4.504;2023-06-04T05:25:31;12.70;8.60
10192;DHT22;17580;50.850;4.504;2023-06-04T05:28:00;12.80;8.40
10192;DHT22;17580;50.850;4.504;2023-06-04T05:30:27;12.90;6.70
10192;DHT22;17580;50.850;4.504;2023-06-04T05:32:54;12.90;7.30
10192;DHT22;17580;50.850;4.504;2023-06-04T05:35:21;12.90;7.20
10192;DHT22;17580;50.850;4.504;2023-06-04T05:37:48;13.00;7.00
10192;DHT22;17580;50.850;4.504;2023-06-04T05:40:19;13.10;7.00
10192;DHT22;17580;50.850;4.504;2023-06-04T05:42:46;13.10;7.30
10192;DHT22;17580;50.850;4.504;2023-06-04T05:45:15;13.10;7.20
10192;DHT22;17580;50.850;4.504;2023-06-04T05:47:42;13.20;7.50
10192;DHT22;17580;50.850;4.504;2023-06-04T05:50:10;13.20;7.10
10192;DHT22;17580;50.850;4.504;2023-06-04T05:52:37;13.30;6.90
10192;DHT22;17580;50.850;4.504;2023-06-04T05:55:05;13.30;7.70
10192;DHT22;17580;50.850;4.504;2023-06-04T05:57:33;13.30;7.40
10192;DHT22;17580;50.850;4.504;2023-06-04T06:00:00;13.30;7.80
10192;DHT22;17580;50.850;4.504;2023-06-04T06:02:29;13.40;7.30
10192;DHT22;17580;50.850;4.504;2023-06-04T06:04:57;13.40;7.00
10192;DHT22;17580;50.850;4.504;2023-06-04T06:07:25;13.40;7.30
10192;DHT22;17580;50.850;4.504;2023-06-04T06:09:52;13.50;7.00
10192;DHT22;17580;50.850;4.504;2023-06-04T06:12:19;13.50;7.20
10192;DHT22;17580;50.850;4.504;2023-06-04T06:14:46;13.60;7.60
10192;DHT22;17580;50.850;4.504;2023-06-04T06:17:14;13.70;7.50
10192;DHT22;17580;50.850;4.504;2023-06-04T06:19:42;13.70;6.80
10192;DHT22;17580;50.850;4.504;2023-06-04T06:22:09;13.70;6.30
10192;DHT22;17580;50.850;4.504;2023-06-04T06:24:37;13.80;6.00
10192;DHT22;17580;50.850;4.504;2023-06-04T06:27:04;13.80;6.50
10192;DHT22;17580;50.850;4.504;2023-06-04T06:29:32;13.80;6.60
10192;DHT22;17580;50.850;4.504;2023-06-04T06:31:59;13.90;5.70
10192;DHT22;17580;50.850;4.504;2023-06-04T06:34:27;14.00;6.50
10192;DHT22;17580;50.850;4.504;2023-06-04T06:36:55;14.10;5.60
10192;DHT22;17580;50.850;4.504;2023-06-04T06:39:23;14.10;7.10
10192;DHT22;17580;50.850;4.504;2023-06-04T06:41:50;14.20;6.00
10192;DHT22;17580;50.850;4.504;2023-06-04T06:44:17;14.20;6.20
10192;DHT22;17580;50.850;4.504;2023-06-04T06:46:44;14.30;6.00
10192;DHT22;17580;50.850;4.504;2023-06-04T06:49:11;14.30;5.80
10192;DHT22;17580;50.850;4.504;2023-06-04T06:51:38;14.30;5.00
10192;DHT22;17580;50.850;4.504;2023-06-04T06:54:08;14.40;5.20
10192;DHT22;17580;50.850;4.504;2023-06-04T06:56:36;14.50;5.50
10192;DHT22;17580;50.850;4.504;2023-06-04T06:59:03;14.60;5.40
10192;DHT22;17580;50.850;4.504;2023-06-04T07:01:30;14.70;6.20
10192;DHT22;17580;50.850;4.504;2023-06-04T07:03:58;14.70;6.00
10192;DHT22;17580;50.850;4.504;2023-06-04T07:06:25;14.70;6.60
10192;DHT22;17580;50.850;4.504;2023-06-04T07:08:52;14.80;4.90
10192;DHT22;17580;50.850;4.504;2023-06-04T07:11:21;14.90;5.90
10192;DHT22;17580;50.850;4.504;2023-06-04T07:13:48;15.00;5.30
10192;DHT22;17580;50.850;4.504;2023-06-04T07:16:15;15.10;5.30
10192;DHT22;17580;50.850;4.504;2023-06-04T07:18:42;15.10;3.60
10192;DHT22;17580;50.850;4.504;2023-06-04T07:21:09;15.20;4.20
10192;DHT22;17580;50.850;4.504;2023-06-04T07:23:36;15.20;3.90
10192;DHT22;17580;50.850;4.504;2023-06-04T07:26:03;15.30;3.70
10192;DHT22;17580;50.850;4.504;2023-06-04T07:28:31;15.40;3.30
10192;DHT22;17580;50.850;4.504;2023-06-04T07:30:58;15.50;3.20
10192;DHT22;17580;50.850;4.504;2023-06-04T07:33:25;15.50;3.40
10192;DHT22;17580;50.850;4.504;2023-06-04T07:35:52;15.60;3.60
10192;DHT22;17580;50.850;4.504;2023-06-04T07:38:19;15.70;1.90
10192;DHT22;17580;50.850;4.504;2023-06-04T07:40:46;15.80;2.30
10192;DHT22;17580;50.850;4.504;2023-06-04T07:43:14;15.90;2.50
10192;DHT22;17580;50.850;4.504;2023-06-04T07:45:44;15.90;2.20
10192;DHT22;17580;50.850;4.504;2023-06-04T07:48:11;16.00;2.90
10192;DHT22;17580;50.850;4.504;2023-06-04T07:50:38;16.00;2.90
10192;DHT22;17580;50.850;4.504;2023-06-04T07:53:06;16.20;2.70
10192;DHT22;17580;50.850;4.504;2023-06-04T07:55:33;16.20;2.30
10192;DHT22;17580;50.850;4.504;2023-06-04T07:58:00;16.30;1.30
10192;DHT22;17580;50.850;4.504;2023-06-04T08:00:27;16.40;1.00
10192;DHT22;17580;50.850;4.504;2023-06-04T08:02:56;16.40;1.30
10192;DHT22;17580;50.850;4.504;2023-06-04T08:05:23;16.50;2.70
10192;DHT22;17580;50.850;4.504;2023-06-04T08:07:50;16.60;1.60
10192;DHT22;17580;50.850;4.504;2023-06-04T08:10:17;16.60;1.40
10192;DHT22;17580;50.850;4.504;2023-06-04T08:12:44;16.70;1.00
10192;DHT22;17580;50.850;4.504;2023-06-04T08:15:11;16.80;1.00
10192;DHT22;17580;50.850;4.504;2023-06-04T08:17:38;16.90;1.00
10192;DHT22;17580;50.850;4.504;2023-06-04T08:20:07;16.90;1.00
10192;DHT22;17580;50.850;4.504;2023-06-04T08:22:35;17.00;1.00
10192;DHT22;17580;50.850;4.504;2023-06-04T08:25:02;17.10;1.00
10192;DHT22;17580;50.850;4.504;2023-06-04T08:27:30;17.10;1.00
10192;DHT22;17580;50.850;4.504;2023-06-04T08:29:57;17.20;1.00
10192;DHT22;17580;50.850;4.504;2023-06-04T08:32:24;17.40;1.00
10192;DHT22;17580;50.850;4.504;2023-06-04T08:34:51;17.40;1.00
10192;DHT22;17580;50.850;4.504;2023-06-04T08:37:20;17.50;1.00
10192;DHT22;17580;50.850;4.504;2023-06-04T08:39:47;17.60;1.00
10192;DHT22;17580;50.850;4.504;2023-06-04T08:42:20;17.70;1.00
10192;DHT22;17580;50.850;4.504;2023-06-04T08:44:50;17.70;1.00
10192;DHT22;17580;50.850;4.504;2023-06-04T08:47:19;17.80;1.00
10192;DHT22;17580;50.850;4.504;2023-06-04T08:49:49;17.90;1.00
10192;DHT22;17580;50.850;4.504;2023-06-04T08:52:16;18.00;1.00
10192;DHT22;17580;50.850;4.504;2023-06-04T08:54:50;18.10;1.00
10192;DHT22;17580;50.850;4.504;2023-06-04T08:57:18;18.20;1.00
10192;DHT22;17580;50.850;4.504;2023-06-04T08:59:46;18.30;1.00
10192;DHT22;17580;50.850;4.504;2023-06-04T09:02:13;18.30;1.00
10192;DHT22;17580;50.850;4.504;2023-06-04T09:04:40;18.50;1.00
10192;DHT22;17580;50.850;4.504;2023-06-04T09:07:08;18.60;1.00
10192;DHT22;17580;50.850;4.504;2023-06-04T09:09:38;18.80;1.00
10192;DHT22;17580;50.850;4.504;2023-06-04T09:12:10;19.10;1.00
10192;DHT22;17580;50.850;4.504;2023-06-04T09:14:37;20.10;1.00
10192;DHT22;17580;50.850;4.504;2023-06-04T09:17:04;21.60;1.00
10192;DHT22;17580;50.850;4.504;2023-06-04T09:19:31;22.70;1.00
10192;DHT22;17580;50.850;4.504;2023-06-04T09:21:59;23.60;1.00
10192;DHT22;17580;50.850;4.504;2023-06-04T09:24:39;24.40;1.00
10192;DHT22;17580;50.850;4.504;2023-06-04T09:27:11;25.30;1.00
10192;DHT22;17580;50.850;4.504;2023-06-04T09:29:39;25.70;1.00
10192;DHT22;17580;50.850;4.504;2023-06-04T09:32:06;26.20;1.00
10192;DHT22;17580;50.850;4.504;2023-06-04T09:34:33;26.60;1.00
10192;DHT22;17580;50.850;4.504;2023-06-04T09:37:02;27.10;1.00
10192;DHT22;17580;50.850;4.504;2023-06-04T09:39:29;27.50;1.00
10192;DHT22;17580;50.850;4.504;2023-06-04T09:41:59;27.60;1.00
10192;DHT22;17580;50.850;4.504;2023-06-04T09:44:28;27.90;1.00
10192;DHT22;17580;50.850;4.504;2023-06-04T09:46:56;28.30;1.00
10192;DHT22;17580;50.850;4.504;2023-06-04T09:49:23;28.70;1.00
10192;DHT22;17580;50.850;4.504;2023-06-04T09:51:50;28.70;1.00
10192;DHT22;17580;50.850;4.504;2023-06-04T09:54:17;28.60;1.00
10192;DHT22;17580;50.850;4.504;2023-06-04T09:56:45;28.90;1.00
10192;DHT22;17580;50.850;4.504;2023-06-04T09:59:13;29.20;1.00
10192;DHT22;17580;50.850;4.504;2023-06-04T10:01:41;29.50;1.00
10192;DHT22;17580;50.850;4.504;2023-06-04T10:04:10;29.50;1.00
10192;DHT22;17580;50.850;4.504;2023-06-04T10:06:40;29.60;1.00
10192;DHT22;17580;50.850;4.504;2023-06-04T10:09:08;29.80;1.00
10192;DHT22;17580;50.850;4.504;2023-06-04T10:11:39;30.30;1.00
10192;DHT22;17580;50.850;4.504;2023-06-04T10:14:12;30.10;1.00
10192;DHT22;17580;50.850;4.504;2023-06-04T10:16:46;30.20;1.00
10192;DHT22;17580;50.850;4.504;2023-06-04T10:19:15;30.60;1.00
10192;DHT22;17580;50.850;4.504;2023-06-04T10:21:43;30.70;1.00
10192;DHT22;17580;50.850;4.504;2023-06-04T10:24:11;30.60;1.00
10192;DHT22;17580;50.850;4.504;2023-06-04T10:26:39;30.40;1.00
10192;DHT22;17580;50.850;4.504;2023-06-04T10:29:07;30.30;1.00
10192;DHT22;17580;50.850;4.504;2023-06-04T10:31:36;30.70;1.00
10192;DHT22;17580;50.850;4.504;2023-06-04T10:34:06;30.90;1.00
10192;DHT22;17580;50.850;4.504;2023-06-04T10:36:42;31.10;1.00
10192;DHT22;17580;50.850;4.504;2023-06-04T10:39:10;31.00;1.00
10192;DHT22;17580;50.850;4.504;2023-06-04T10:41:37;31.30;1.00
10192;DHT22;17580;50.850;4.504;2023-06-04T10:44:05;31.30;1.00
10192;DHT22;17580;50.850;4.504;2023-06-04T10:46:39;31.40;1.00
10192;DHT22;17580;50.850;4.504;2023-06-04T10:49:09;31.50;1.00
10192;DHT22;17580;50.850;4.504;2023-06-04T10:51:37;31.60;1.00
10192;DHT22;17580;50.850;4.504;2023-06-04T10:54:04;31.50;1.00
10192;DHT22;17580;50.850;4.504;2023-06-04T10:56:41;31.10;1.00
10192;DHT22;17580;50.850;4.504;2023-06-04T10:59:15;31.20;1.00
10192;DHT22;17580;50.850;4.504;2023-06-04T11:01:43;31.30;1.00
10192;DHT22;17580;50.850;4.504;2023-06-04T11:04:19;31.40;1.00
10192;DHT22;17580;50.850;4.504;2023-06-04T11:06:47;31.70;1.00
10192;DHT22;17580;50.850;4.504;2023-06-04T11:09:14;32.00;1.00
10192;DHT22;17580;50.850;4.504;2023-06-04T11:11:43;31.60;1.00
10192;DHT22;17580;50.850;4.504;2023-06-04T11:14:11;31.20;1.00
10192;DHT22;17580;50.850;4.504;2023-06-04T11:16:39;30.90;1.00
10192;DHT22;17580;50.850;4.504;2023-06-04T11:19:06;31.50;1.00
10192;DHT22;17580;50.850;4.504;2023-06-04T11:21:34;31.70;1.00
10192;DHT22;17580;50.850;4.504;2023-06-04T11:24:04;31.60;1.00
10192;DHT22;17580;50.850;4.504;2023-06-04T11:26:32;31.80;1.00
10192;DHT22;17580;50.850;4.504;2023-06-04T11:29:01;31.80;1.00
10192;DHT22;17580;50.850;4.504;2023-06-04T11:31:28;31.70;1.00
10192;DHT22;17580;50.850;4.504;2023-06-04T11:33:55;32.00;1.00
10192;DHT22;17580;50.850;4.504;2023-06-04T11:36:23;32.00;1.00
10192;DHT22;17580;50.850;4.504;2023-06-04T11:38:57;32.20;1.00
10192;DHT22;17580;50.850;4.504;2023-06-04T11:41:26;32.20;1.00
10192;DHT22;17580;50.850;4.504;2023-06-04T11:43:53;31.70;1.00
10192;DHT22;17580;50.850;4.504;2023-06-04T11:46:23;31.70;1.00
10192;DHT22;17580;50.850;4.504;2023-06-04T11:48:51;31.40;1.00
10192;DHT22;17580;50.850;4.504;2023-06-04T11:51:19;32.00;1.00
10192;DHT22;17580;50.850;4.504;2023-06-04T11:53:47;31.70;1.00
10192;DHT22;17580;50.850;4.504;2023-06-04T11:56:14;32.20;1.00
10192;DHT22;17580;50.850;4.504;2023-06-04T11:58:41;31.90;1.00
10192;DHT22;17580;50.850;4.504;2023-06-04T12:01:08;32.10;1.00
10192;DHT22;17580;50.850;4.504;2023-06-04T12:03:39;31.90;1.00
10192;DHT22;17580;50.850;4.504;2023-06-04T12:06:11;31.50;1.00
10192;DHT22;17580;50.850;4.504;2023-06-04T12:08:49;31.80;1.00
10192;DHT22;17580;50.850;4.504;2023-06-04T12:11:27;31.80;1.00
10192;DHT22;17580;50.850;4.504;2023-06-04T12:13:55;31.50;1.00
10192;DHT22;17580;50.850;4.504;2023-06-04T12:16:22;31.50;1.00
10192;DHT22;17580;50.850;4.504;2023-06-04T12:18:50;31.50;1.00
10192;DHT22;17580;50.850;4.504;2023-06-04T12:21:22;31.60;1.00
10192;DHT22;17580;50.850;4.504;2023-06-04T12:23:53;31.50;1.00
10192;DHT22;17580;50.850;4.504;2023-06-04T12:26:22;31.60;1.00
10192;DHT22;17580;50.850;4.504;2023-06-04T12:29:00;31.40;1.00
10192;DHT22;17580;50.850;4.504;2023-06-04T12:31:27;31.20;1.00
10192;DHT22;17580;50.850;4.504;2023-06-04T12:34:01;31.00;1.00
10192;DHT22;17580;50.850;4.504;2023-06-04T12:36:28;30.70;1.00
10192;DHT22;17580;50.850;4.504;2023-06-04T12:38:58;30.80;1.00
10192;DHT22;17580;50.850;4.504;2023-06-04T12:41:26;30.40;1.00
10192;DHT22;17580;50.850;4.504;2023-06-04T12:43:53;30.50;1.00
10192;DHT22;17580;50.850;4.504;2023-06-04T12:46:20;30.90;1.00
10192;DHT22;17580;50.850;4.504;2023-06-04T12:48:48;30.90;1.00
10192;DHT22;17580;50.850;4.504;2023-06-04T12:51:16;30.90;1.00
10192;DHT22;17580;50.850;4.504;2023-06-04T12:53:43;31.00;1.00
10192;DHT22;17580;50.850;4.504;2023-06-04T12:56:11;31.10;1.00
10192;DHT22;17580;50.850;4.504;2023-06-04T12:58:38;31.00;1.00
10192;DHT22;17580;50.850;4.504;2023-06-04T13:01:05;30.60;1.00
10192;DHT22;17580;50.850;4.504;2023-06-04T13:03:32;30.10;1.00
10192;DHT22;17580;50.850;4.504;2023-06-04T13:05:59;29.70;1.00
10192;DHT22;17580;50.850;4.504;2023-06-04T13:08:28;29.50;1.00
10192;DHT22;17580;50.850;4.504;2023-06-04T13:10:55;29.20;1.00
10192;DHT22;17580;50.850;4.504;2023-06-04T13:13:22;28.90;1.00
10192;DHT22;17580;50.850;4.504;2023-06-04T13:15:49;28.80;1.00
10192;DHT22;17580;50.850;4.504;2023-06-04T13:18:16;28.80;1.00
10192;DHT22;17580;50.850;4.504;2023-06-04T13:20:43;28.70;1.00
10192;DHT22;17580;50.850;4.504;2023-06-04T13:23:10;28.60;1.00
10192;DHT22;17580;50.850;4.504;2023-06-04T13:25:39;28.60;1.00
10192;DHT22;17580;50.850;4.504;2023-06-04T13:28:07;28.50;1.00
10192;DHT22;17580;50.850;4.504;2023-06-04T13:30:35;28.50;1.00
10192;DHT22;17580;50.850;4.504;2023-06-04T13:33:02;28.40;1.00
10192;DHT22;17580;50.850;4.504;2023-06-04T13:35:29;28.20;1.00
10192;DHT22;17580;50.850;4.504;2023-06-04T13:37:56;28.10;1.00
10192;DHT22;17580;50.850;4.504;2023-06-04T13:40:24;28.20;1.00
10192;DHT22;17580;50.850;4.504;2023-06-04T13:42:52;28.30;1.00
10192;DHT22;17580;50.850;4.504;2023-06-04T13:45:19;28.10;1.00
10192;DHT22;17580;50.850;4.504;2023-06-04T13:47:46;28.40;1.00
10192;DHT22;17580;50.850;4.504;2023-06-04T13:50:15;28.40;1.00
10192;DHT22;17580;50.850;4.504;2023-06-04T13:52:42;28.40;1.00
10192;DHT22;17580;50.850;4.504;2023-06-04T13:55:11;28.20;1.00
10192;DHT22;17580;50.850;4.504;2023-06-04T13:57:38;28.10;1.00
10192;DHT22;17580;50.850;4.504;2023-06-04T14:00:09;28.10;1.00
10192;DHT22;17580;50.850;4.504;2023-06-04T14:02:39;27.90;1.00
10192;DHT22;17580;50.850;4.504;2023-06-04T14:05:06;27.90;1.00
10192;DHT22;17580;50.850;4.504;2023-06-04T14:07:33;27.80;1.00
10192;DHT22;17580;50.850;4.504;2023-06-04T14:10:00;27.80;1.00
10192;DHT22;17580;50.850;4.504;2023-06-04T14:12:27;27.70;1.00
10192;DHT22;17580;50.850;4.504;2023-06-04T14:14:54;27.70;1.00
10192;DHT22;17580;50.850;4.504;2023-06-04T14:17:23;27.70;1.00
10192;DHT22;17580;50.850;4.504;2023-06-04T14:19:50;27.50;1.00
10192;DHT22;17580;50.850;4.504;2023-06-04T14:22:17;27.50;1.00
10192;DHT22;17580;50.850;4.504;2023-06-04T14:24:44;27.40;1.00
10192;DHT22;17580;50.850;4.504;2023-06-04T14:27:11;27.20;1.00
10192;DHT22;17580;50.850;4.504;2023-06-04T14:29:38;27.30;1.00
10192;DHT22;17580;50.850;4.504;2023-06-04T14:32:05;27.30;1.00
10192;DHT22;17580;50.850;4.504;2023-06-04T14:34:34;27.20;1.00
10192;DHT22;17580;50.850;4.504;2023-06-04T14:37:01;27.20;1.00
10192;DHT22;17580;50.850;4.504;2023-06-04T14:39:28;27.20;1.00
10192;DHT22;17580;50.850;4.504;2023-06-04T14:41:55;27.20;1.00
10192;DHT22;17580;50.850;4.504;2023-06-04T14:44:22;27.30;1.00
10192;DHT22;17580;50.850;4.504;2023-06-04T14:46:50;27.10;1.00
10192;DHT22;17580;50.850;4.504;2023-06-04T14:49:17;27.00;1.00
10192;DHT22;17580;50.850;4.504;2023-06-04T14:51:46;27.00;1.00
10192;DHT22;17580;50.850;4.504;2023-06-04T14:54:13;26.90;1.00
10192;DHT22;17580;50.850;4.504;2023-06-04T14:56:40;26.90;1.00
10192;DHT22;17580;50.850;4.504;2023-06-04T14:59:07;26.80;1.00
10192;DHT22;17580;50.850;4.504;2023-06-04T15:01:37;26.70;1.00
10192;DHT22;17580;50.850;4.504;2023-06-04T15:04:04;26.50;1.00
10192;DHT22;17580;50.850;4.504;2023-06-04T15:06:31;26.50;1.00
10192;DHT22;17580;50.850;4.504;2023-06-04T15:08:59;26.50;1.00
10192;DHT22;17580;50.850;4.504;2023-06-04T15:11:27;26.40;1.00
10192;DHT22;17580;50.850;4.504;2023-06-04T15:13:54;26.40;1.00
10192;DHT22;17580;50.850;4.504;2023-06-04T15:16:21;26.30;1.00
10192;DHT22;17580;50.850;4.504;2023-06-04T15:18:48;26.30;1.00
10192;DHT22;17580;50.850;4.504;2023-06-04T15:21:15;26.20;1.00
10192;DHT22;17580;50.850;4.504;2023-06-04T15:23:42;26.00;1.00
10192;DHT22;17580;50.850;4.504;2023-06-04T15:26:16;25.90;1.00
10192;DHT22;17580;50.850;4.504;2023-06-04T15:28:44;25.90;1.00
10192;DHT22;17580;50.850;4.504;2023-06-04T15:31:12;25.80;1.00
10192;DHT22;17580;50.850;4.504;2023-06-04T15:33:39;25.70;1.00
10192;DHT22;17580;50.850;4.504;2023-06-04T15:36:06;25.70;1.00
10192;DHT22;17580;50.850;4.504;2023-06-04T15:38:33;25.60;1.00
10192;DHT22;17580;50.850;4.504;2023-06-04T15:41:00;25.60;1.00
10192;DHT22;17580;50.850;4.504;2023-06-04T15:43:29;25.60;1.00
10192;DHT22;17580;50.850;4.504;2023-06-04T15:45:56;25.60;1.00
10192;DHT22;17580;50.850;4.504;2023-06-04T15:48:23;25.50;1.00
10192;DHT22;17580;50.850;4.504;2023-06-04T15:50:53;25.50;1.00